Αρχική σελίδα
METAR-TAF:

METAR-TAF

Αεροδρόμια :

Ντζαμένα, Τσαντ

γεωγραφικό πλάτος: 12-08N, γεωγραφικό μήκος: 015-02E, υψόμετρο: 295 μ

Παρών καιρός

Η αναφορά έγινε 18 λεπτά πριν, στις 23:00 UTC
Άνεμος 2 kt από μεταβλητές κατευθύνσεις
Θερμοκρασία 24°C
Υγρασία 78%
Πίεση 1008 hPa
Ορατότητα: 8000 μ

METAR: FTTJ 212300Z VRB02KT 8000 NSC 24/20 Q1008 NOSIG

Χρόνος: 00:18 (23:18 UTC)

Πρόγνωση Καιρού

Η αναφορά έγινε 6 ώρες και 18 λεπτά πριν, στις 17:00 UTC
Η πρόγνωση ισχύει από τις 21 στις 18 UTC έως τις 22 στις 24 UTC
Άνεμος 3 kt από μεταβλητές κατευθύνσεις
Ορατότητα: 6000 μ
Προσωρινά
από 22 στις 02 UTC έως τις 22 στις 07 UTC
Ορατότητα: 4000 μ
καταχνιά
Προσωρινά
από 22 στις 08 UTC έως τις 22 στις 14 UTC
Άνεμος 10 kt από Α
Ορατότητα 10 χλμ και άνω
Λίγα νέφη σε ύψος 4000 πόδια

TAF: FTTJ 211700Z 2118/2224 VRB03KT 6000 NSC TEMPO 2202/2207 4000 HZ TEMPO 2208/2214 10010KT 9999 FEW040

Μετεωρολογικές αναφορές και προγνώσεις για περισσότερα από 4000 αεροδρόμια (δελτία METAR και TAF).

Οι διαθέσιμοι σταθμοί απεικονίζονται στο χάρτη με κίτρινες και κόκκινες κουκκίδες.

Μετακινήστε το ποντίκι πάνω από τις κουκκίδες για να δείτε το όνομα του σταθμού.

Στη συνέχεια, κάντε κλικ για να δείτε τις μετεωρολογικές αναφορές και τις προγνώσεις καιρού.

Για να αλλάξετε το χάρτη: κάντε κλικ στα πράσινα κουμπιά με τον μαύρο σταυρό για να ζουμάρετε, στο πράσινο κουμπί με την παύλα για να αφαιρέσετε το ζουμ ή στα πράσινα βέλη για να αντιπαραβάλλετε χάρτες.


METAR-TAF: